sensor_id;sensor_type;location;lat;lon;timestamp;pressure;altitude;pressure_sealevel;temperature;humidity
35778;BME280;21899;42.662;23.316;2023-02-03T00:00:38;94600.78;;;2.36;87.56
35778;BME280;21899;42.662;23.316;2023-02-03T00:03:04;94608.81;;;2.28;88.43
35778;BME280;21899;42.662;23.316;2023-02-03T00:05:30;94605.28;;;2.24;89.22
35778;BME280;21899;42.662;23.316;2023-02-03T00:07:55;94616.16;;;2.22;90.78
35778;BME280;21899;42.662;23.316;2023-02-03T00:10:21;94600.25;;;1.98;92.17
35778;BME280;21899;42.662;23.316;2023-02-03T00:12:51;94619.09;;;2.09;93.16
35778;BME280;21899;42.662;23.316;2023-02-03T00:15:20;94615.44;;;2.01;93.74
35778;BME280;21899;42.662;23.316;2023-02-03T00:17:47;94626.88;;;2.05;93.71
35778;BME280;21899;42.662;23.316;2023-02-03T00:20:12;94617.75;;;2.03;93.92
35778;BME280;21899;42.662;23.316;2023-02-03T00:22:38;94619.28;;;2.04;94.62
35778;BME280;21899;42.662;23.316;2023-02-03T00:25:03;94599.88;;;1.88;95.24
35778;BME280;21899;42.662;23.316;2023-02-03T00:27:29;94622.13;;;1.99;96.52
35778;BME280;21899;42.662;23.316;2023-02-03T00:29:54;94627.94;;;1.92;97.47
35778;BME280;21899;42.662;23.316;2023-02-03T00:32:20;94621.63;;;1.85;99.25
35778;BME280;21899;42.662;23.316;2023-02-03T00:34:45;94620.84;;;1.84;99.40
35778;BME280;21899;42.662;23.316;2023-02-03T00:37:12;94633.41;;;1.87;100.00
35778;BME280;21899;42.662;23.316;2023-02-03T00:39:37;94636.31;;;1.94;99.45
35778;BME280;21899;42.662;23.316;2023-02-03T00:42:04;94640.25;;;1.88;99.55
35778;BME280;21899;42.662;23.316;2023-02-03T00:44:30;94635.28;;;1.87;99.38
35778;BME280;21899;42.662;23.316;2023-02-03T00:46:55;94637.78;;;1.83;99.89
35778;BME280;21899;42.662;23.316;2023-02-03T00:49:20;94637.59;;;1.88;100.00
35778;BME280;21899;42.662;23.316;2023-02-03T00:51:46;94638.47;;;1.92;99.67
35778;BME280;21899;42.662;23.316;2023-02-03T00:54:11;94637.06;;;1.95;99.40
35778;BME280;21899;42.662;23.316;2023-02-03T00:56:38;94638.88;;;1.82;98.28
35778;BME280;21899;42.662;23.316;2023-02-03T00:59:03;94639.19;;;1.81;98.22
35778;BME280;21899;42.662;23.316;2023-02-03T01:01:29;94633.59;;;1.82;98.66
35778;BME280;21899;42.662;23.316;2023-02-03T01:03:55;94647.38;;;1.88;98.58
35778;BME280;21899;42.662;23.316;2023-02-03T01:06:21;94651.59;;;1.80;99.06
35778;BME280;21899;42.662;23.316;2023-02-03T01:08:47;94667.72;;;1.87;100.00
35778;BME280;21899;42.662;23.316;2023-02-03T01:11:19;94656.66;;;1.73;100.00
35778;BME280;21899;42.662;23.316;2023-02-03T01:13:45;94652.91;;;1.74;100.00
35778;BME280;21899;42.662;23.316;2023-02-03T01:16:12;94663.28;;;1.79;100.00
35778;BME280;21899;42.662;23.316;2023-02-03T01:18:39;94647.16;;;1.72;100.00
35778;BME280;21899;42.662;23.316;2023-02-03T01:21:13;94652.38;;;1.81;100.00
35778;BME280;21899;42.662;23.316;2023-02-03T01:23:40;94652.13;;;1.74;100.00
35778;BME280;21899;42.662;23.316;2023-02-03T01:26:11;94647.03;;;1.69;98.97
35778;BME280;21899;42.662;23.316;2023-02-03T01:28:37;94636.56;;;1.60;99.16
35778;BME280;21899;42.662;23.316;2023-02-03T01:31:14;94635.72;;;1.68;98.60
35778;BME280;21899;42.662;23.316;2023-02-03T01:33:40;94646.47;;;1.63;99.00
35778;BME280;21899;42.662;23.316;2023-02-03T01:36:07;94641.38;;;1.58;98.24
35778;BME280;21899;42.662;23.316;2023-02-03T01:38:33;94638.34;;;1.48;98.75
35778;BME280;21899;42.662;23.316;2023-02-03T01:40:59;94640.91;;;1.35;98.86
35778;BME280;21899;42.662;23.316;2023-02-03T01:43:34;94663.06;;;1.43;99.31
35778;BME280;21899;42.662;23.316;2023-02-03T01:46:28;94664.78;;;1.39;100.00
35778;BME280;21899;42.662;23.316;2023-02-03T01:48:52;94681.06;;;1.41;100.00
35778;BME280;21899;42.662;23.316;2023-02-03T01:51:20;94669.72;;;1.41;99.72
35778;BME280;21899;42.662;23.316;2023-02-03T01:53:47;94674.53;;;1.47;100.00
35778;BME280;21899;42.662;23.316;2023-02-03T01:56:15;94681.34;;;1.48;99.93
35778;BME280;21899;42.662;23.316;2023-02-03T01:58:41;94675.41;;;1.51;99.39
35778;BME280;21899;42.662;23.316;2023-02-03T02:01:07;94664.41;;;1.49;98.47
35778;BME280;21899;42.662;23.316;2023-02-03T02:03:38;94665.97;;;1.50;98.33
35778;BME280;21899;42.662;23.316;2023-02-03T02:06:07;94670.13;;;1.51;98.34
35778;BME280;21899;42.662;23.316;2023-02-03T02:08:34;94662.28;;;1.43;98.27
35778;BME280;21899;42.662;23.316;2023-02-03T02:11:00;94685.50;;;1.49;97.69
35778;BME280;21899;42.662;23.316;2023-02-03T02:13:29;94678.69;;;1.48;97.69
35778;BME280;21899;42.662;23.316;2023-02-03T02:16:16;94672.97;;;1.46;97.70
35778;BME280;21899;42.662;23.316;2023-02-03T02:27:08;94692.78;;;1.52;96.68
35778;BME280;21899;42.662;23.316;2023-02-03T02:43:39;94692.09;;;1.34;96.37
35778;BME280;21899;42.662;23.316;2023-02-03T02:46:32;94689.31;;;1.31;95.49
35778;BME280;21899;42.662;23.316;2023-02-03T02:49:08;94681.56;;;1.34;95.25
35778;BME280;21899;42.662;23.316;2023-02-03T02:51:38;94685.28;;;1.33;94.90
35778;BME280;21899;42.662;23.316;2023-02-03T02:54:07;94686.69;;;1.31;94.46
35778;BME280;21899;42.662;23.316;2023-02-03T02:56:38;94710.56;;;1.34;93.79
35778;BME280;21899;42.662;23.316;2023-02-03T02:59:05;94701.13;;;1.33;94.25
35778;BME280;21899;42.662;23.316;2023-02-03T03:01:31;94702.06;;;1.29;93.68
35778;BME280;21899;42.662;23.316;2023-02-03T03:03:59;94712.41;;;1.34;94.05
35778;BME280;21899;42.662;23.316;2023-02-03T03:06:43;94719.25;;;1.35;92.89
35778;BME280;21899;42.662;23.316;2023-02-03T03:09:22;94711.69;;;1.25;92.29
35778;BME280;21899;42.662;23.316;2023-02-03T03:11:53;94709.97;;;1.29;91.47
35778;BME280;21899;42.662;23.316;2023-02-03T03:14:22;94718.38;;;1.22;91.51
35778;BME280;21899;42.662;23.316;2023-02-03T03:16:57;94720.09;;;1.18;91.67
35778;BME280;21899;42.662;23.316;2023-02-03T03:19:26;94725.06;;;1.20;91.66
35778;BME280;21899;42.662;23.316;2023-02-03T03:21:56;94733.59;;;1.17;91.69
35778;BME280;21899;42.662;23.316;2023-02-03T03:24:30;94732.97;;;1.20;90.33
35778;BME280;21899;42.662;23.316;2023-02-03T03:27:10;94725.09;;;1.11;89.75
35778;BME280;21899;42.662;23.316;2023-02-03T03:29:48;94736.09;;;1.13;88.66
35778;BME280;21899;42.662;23.316;2023-02-03T03:32:15;94720.31;;;1.05;89.26
35778;BME280;21899;42.662;23.316;2023-02-03T03:34:40;94724.63;;;1.09;89.07
35778;BME280;21899;42.662;23.316;2023-02-03T03:39:45;94736.75;;;1.02;89.28
35778;BME280;21899;42.662;23.316;2023-02-03T03:44:49;94739.56;;;0.97;90.17
35778;BME280;21899;42.662;23.316;2023-02-03T03:47:23;94725.03;;;0.91;90.64
35778;BME280;21899;42.662;23.316;2023-02-03T03:49:52;94733.84;;;0.95;90.41
35778;BME280;21899;42.662;23.316;2023-02-03T03:52:22;94734.63;;;0.95;90.33
35778;BME280;21899;42.662;23.316;2023-02-03T03:54:52;94718.81;;;0.87;90.06
35778;BME280;21899;42.662;23.316;2023-02-03T03:57:24;94712.78;;;0.86;90.37
35778;BME280;21899;42.662;23.316;2023-02-03T03:59:50;94696.22;;;0.86;90.07
35778;BME280;21899;42.662;23.316;2023-02-03T04:02:18;94707.66;;;0.90;90.68
35778;BME280;21899;42.662;23.316;2023-02-03T04:04:45;94731.84;;;0.92;90.79
35778;BME280;21899;42.662;23.316;2023-02-03T04:07:12;94725.63;;;0.88;91.33
35778;BME280;21899;42.662;23.316;2023-02-03T04:09:38;94719.47;;;0.84;92.01
35778;BME280;21899;42.662;23.316;2023-02-03T04:12:05;94741.91;;;0.81;92.27
35778;BME280;21899;42.662;23.316;2023-02-03T04:14:35;94739.44;;;0.85;92.24
35778;BME280;21899;42.662;23.316;2023-02-03T04:17:05;94738.97;;;0.83;91.96
35778;BME280;21899;42.662;23.316;2023-02-03T04:19:30;94735.13;;;0.80;92.77
35778;BME280;21899;42.662;23.316;2023-02-03T04:21:55;94743.34;;;0.79;92.78
35778;BME280;21899;42.662;23.316;2023-02-03T04:24:21;94754.34;;;0.81;92.42
35778;BME280;21899;42.662;23.316;2023-02-03T04:26:46;94756.50;;;0.79;92.45
35778;BME280;21899;42.662;23.316;2023-02-03T04:29:12;94763.47;;;0.75;91.96
35778;BME280;21899;42.662;23.316;2023-02-03T04:31:37;94782.53;;;0.80;92.32
35778;BME280;21899;42.662;23.316;2023-02-03T04:34:03;94787.03;;;0.80;92.32
35778;BME280;21899;42.662;23.316;2023-02-03T04:36:29;94783.16;;;0.86;92.44
35778;BME280;21899;42.662;23.316;2023-02-03T04:38:54;94772.31;;;0.87;92.63
35778;BME280;21899;42.662;23.316;2023-02-03T04:41:20;94783.16;;;0.86;93.11
35778;BME280;21899;42.662;23.316;2023-02-03T04:43:45;94787.47;;;0.90;92.26
35778;BME280;21899;42.662;23.316;2023-02-03T04:46:10;94793.53;;;0.91;92.00
35778;BME280;21899;42.662;23.316;2023-02-03T04:48:36;94812.72;;;1.00;91.26
35778;BME280;21899;42.662;23.316;2023-02-03T04:51:03;94804.06;;;0.91;91.68
35778;BME280;21899;42.662;23.316;2023-02-03T04:53:30;94809.94;;;1.05;90.98
35778;BME280;21899;42.662;23.316;2023-02-03T04:55:55;94808.25;;;1.00;91.01
35778;BME280;21899;42.662;23.316;2023-02-03T04:58:21;94801.25;;;0.96;90.44
35778;BME280;21899;42.662;23.316;2023-02-03T05:00:46;94815.50;;;1.12;90.98
35778;BME280;21899;42.662;23.316;2023-02-03T05:03:12;94829.75;;;1.11;90.26
35778;BME280;21899;42.662;23.316;2023-02-03T05:05:37;94812.88;;;1.03;90.70
35778;BME280;21899;42.662;23.316;2023-02-03T05:08:03;94815.66;;;1.07;90.67
35778;BME280;21899;42.662;23.316;2023-02-03T05:10:28;94828.03;;;1.23;90.49
35778;BME280;21899;42.662;23.316;2023-02-03T05:12:54;94818.25;;;1.24;89.69
35778;BME280;21899;42.662;23.316;2023-02-03T05:15:19;94836.69;;;1.32;89.24
35778;BME280;21899;42.662;23.316;2023-02-03T05:17:45;94828.78;;;1.24;89.65
35778;BME280;21899;42.662;23.316;2023-02-03T05:20:10;94845.84;;;1.35;89.33
35778;BME280;21899;42.662;23.316;2023-02-03T05:22:36;94852.81;;;1.31;88.77
35778;BME280;21899;42.662;23.316;2023-02-03T05:25:02;94845.53;;;1.37;88.51
35778;BME280;21899;42.662;23.316;2023-02-03T05:27:28;94842.56;;;1.38;88.62
35778;BME280;21899;42.662;23.316;2023-02-03T05:29:54;94852.19;;;1.34;88.93
35778;BME280;21899;42.662;23.316;2023-02-03T05:32:19;94851.59;;;1.28;89.02
35778;BME280;21899;42.662;23.316;2023-02-03T05:34:45;94852.22;;;1.25;89.72
35778;BME280;21899;42.662;23.316;2023-02-03T05:37:10;94843.69;;;1.20;90.00
35778;BME280;21899;42.662;23.316;2023-02-03T05:39:36;94827.91;;;1.03;89.85
35778;BME280;21899;42.662;23.316;2023-02-03T05:42:02;94837.06;;;1.05;90.01
35778;BME280;21899;42.662;23.316;2023-02-03T05:44:28;94827.31;;;0.89;91.17
35778;BME280;21899;42.662;23.316;2023-02-03T05:46:56;94843.88;;;0.89;91.42
35778;BME280;21899;42.662;23.316;2023-02-03T05:49:22;94840.97;;;0.82;91.93
35778;BME280;21899;42.662;23.316;2023-02-03T05:51:51;94851.66;;;0.86;92.10
35778;BME280;21899;42.662;23.316;2023-02-03T05:54:17;94846.09;;;0.79;92.25
35778;BME280;21899;42.662;23.316;2023-02-03T05:56:42;94863.91;;;0.82;92.13
35778;BME280;21899;42.662;23.316;2023-02-03T05:59:08;94871.66;;;0.78;92.31
35778;BME280;21899;42.662;23.316;2023-02-03T06:01:34;94868.69;;;0.80;92.32
35778;BME280;21899;42.662;23.316;2023-02-03T06:04:00;94856.31;;;0.80;92.96
35778;BME280;21899;42.662;23.316;2023-02-03T06:06:26;94862.97;;;0.78;92.35
35778;BME280;21899;42.662;23.316;2023-02-03T06:08:57;94870.88;;;0.86;91.83
35778;BME280;21899;42.662;23.316;2023-02-03T06:11:23;94874.59;;;0.94;92.26
35778;BME280;21899;42.662;23.316;2023-02-03T06:13:49;94870.06;;;1.03;92.47
35778;BME280;21899;42.662;23.316;2023-02-03T06:16:14;94867.91;;;1.05;89.99
35778;BME280;21899;42.662;23.316;2023-02-03T06:18:40;94867.13;;;0.96;89.63
35778;BME280;21899;42.662;23.316;2023-02-03T06:21:06;94872.41;;;1.04;89.21
35778;BME280;21899;42.662;23.316;2023-02-03T06:23:31;94866.97;;;1.09;89.43
35778;BME280;21899;42.662;23.316;2023-02-03T06:25:56;94863.28;;;1.02;88.54
35778;BME280;21899;42.662;23.316;2023-02-03T06:28:24;94878.13;;;1.15;87.76
35778;BME280;21899;42.662;23.316;2023-02-03T06:30:50;94876.25;;;1.24;87.15
35778;BME280;21899;42.662;23.316;2023-02-03T06:33:17;94893.59;;;1.42;86.75
35778;BME280;21899;42.662;23.316;2023-02-03T06:35:43;94896.06;;;1.47;85.32
35778;BME280;21899;42.662;23.316;2023-02-03T06:38:08;94901.81;;;1.41;85.22
35778;BME280;21899;42.662;23.316;2023-02-03T06:40:33;94896.50;;;1.49;84.45
35778;BME280;21899;42.662;23.316;2023-02-03T06:42:59;94894.19;;;1.56;83.60
35778;BME280;21899;42.662;23.316;2023-02-03T06:45:24;94900.47;;;1.72;82.26
35778;BME280;21899;42.662;23.316;2023-02-03T06:47:50;94910.03;;;1.94;80.49
35778;BME280;21899;42.662;23.316;2023-02-03T06:50:15;94915.53;;;2.18;79.62
35778;BME280;21899;42.662;23.316;2023-02-03T06:52:41;94923.41;;;2.26;78.34
35778;BME280;21899;42.662;23.316;2023-02-03T06:55:07;94914.03;;;2.37;77.87
35778;BME280;21899;42.662;23.316;2023-02-03T06:57:32;94910.09;;;2.43;76.61
35778;BME280;21899;42.662;23.316;2023-02-03T06:59:58;94912.88;;;2.47;77.34
35778;BME280;21899;42.662;23.316;2023-02-03T07:02:23;94907.13;;;2.45;76.51
35778;BME280;21899;42.662;23.316;2023-02-03T07:04:49;94905.78;;;2.59;76.47
35778;BME280;21899;42.662;23.316;2023-02-03T07:07:14;94907.19;;;2.36;76.42
35778;BME280;21899;42.662;23.316;2023-02-03T07:09:40;94915.72;;;2.42;76.95
35778;BME280;21899;42.662;23.316;2023-02-03T07:12:07;94905.00;;;2.38;76.79
35778;BME280;21899;42.662;23.316;2023-02-03T07:14:33;94897.91;;;2.30;76.17
35778;BME280;21899;42.662;23.316;2023-02-03T07:17:04;94903.81;;;2.27;76.15
35778;BME280;21899;42.662;23.316;2023-02-03T07:19:30;94908.94;;;2.32;76.13
35778;BME280;21899;42.662;23.316;2023-02-03T07:21:55;94901.50;;;2.26;75.78
35778;BME280;21899;42.662;23.316;2023-02-03T07:24:21;94901.72;;;2.12;75.54
35778;BME280;21899;42.662;23.316;2023-02-03T07:26:46;94899.81;;;2.21;76.37
35778;BME280;21899;42.662;23.316;2023-02-03T07:29:11;94915.28;;;2.31;76.33
35778;BME280;21899;42.662;23.316;2023-02-03T07:31:37;94910.75;;;2.40;75.49
35778;BME280;21899;42.662;23.316;2023-02-03T07:34:03;94914.91;;;2.41;75.13
35778;BME280;21899;42.662;23.316;2023-02-03T07:36:29;94909.81;;;2.36;74.54
35778;BME280;21899;42.662;23.316;2023-02-03T07:38:54;94913.06;;;2.42;74.26
35778;BME280;21899;42.662;23.316;2023-02-03T07:41:20;94929.59;;;2.30;75.18
35778;BME280;21899;42.662;23.316;2023-02-03T07:43:45;94924.44;;;2.34;75.50
35778;BME280;21899;42.662;23.316;2023-02-03T07:46:11;94924.94;;;2.27;74.95
35778;BME280;21899;42.662;23.316;2023-02-03T07:48:36;94929.00;;;2.25;75.21
35778;BME280;21899;42.662;23.316;2023-02-03T07:51:02;94928.50;;;2.31;75.38
35778;BME280;21899;42.662;23.316;2023-02-03T07:53:27;94920.13;;;2.29;75.37
35778;BME280;21899;42.662;23.316;2023-02-03T07:55:53;94936.06;;;2.41;75.05
35778;BME280;21899;42.662;23.316;2023-02-03T07:58:18;94933.06;;;2.51;75.19
35778;BME280;21899;42.662;23.316;2023-02-03T08:00:43;94928.88;;;2.50;73.89
35778;BME280;21899;42.662;23.316;2023-02-03T08:03:09;94936.75;;;2.59;73.81
35778;BME280;21899;42.662;23.316;2023-02-03T08:05:35;94945.94;;;2.53;74.14
35778;BME280;21899;42.662;23.316;2023-02-03T08:08:00;94943.38;;;2.44;73.38
35778;BME280;21899;42.662;23.316;2023-02-03T08:10:26;94942.69;;;2.56;73.37
35778;BME280;21899;42.662;23.316;2023-02-03T08:12:54;94927.91;;;2.55;73.83
35778;BME280;21899;42.662;23.316;2023-02-03T08:15:20;94948.22;;;2.63;73.38
35778;BME280;21899;42.662;23.316;2023-02-03T08:17:47;94944.53;;;2.55;74.14
35778;BME280;21899;42.662;23.316;2023-02-03T08:20:12;94941.91;;;2.55;74.34
35778;BME280;21899;42.662;23.316;2023-02-03T08:22:38;94946.25;;;2.51;73.47
35778;BME280;21899;42.662;23.316;2023-02-03T08:25:03;94959.16;;;2.53;73.81
35778;BME280;21899;42.662;23.316;2023-02-03T08:27:30;94944.75;;;2.42;73.04
35778;BME280;21899;42.662;23.316;2023-02-03T08:29:57;94959.03;;;2.49;73.76
35778;BME280;21899;42.662;23.316;2023-02-03T08:32:22;94958.91;;;2.66;73.47
35778;BME280;21899;42.662;23.316;2023-02-03T08:34:51;94954.38;;;2.76;72.90
35778;BME280;21899;42.662;23.316;2023-02-03T08:37:20;94951.78;;;2.88;68.90
35778;BME280;21899;42.662;23.316;2023-02-03T08:39:47;94965.00;;;2.88;69.02
35778;BME280;21899;42.662;23.316;2023-02-03T08:42:12;94966.31;;;3.02;69.41
35778;BME280;21899;42.662;23.316;2023-02-03T08:44:37;94962.97;;;3.14;67.81
35778;BME280;21899;42.662;23.316;2023-02-03T08:47:04;94970.94;;;3.26;67.77
35778;BME280;21899;42.662;23.316;2023-02-03T08:49:29;94982.06;;;3.40;67.14
35778;BME280;21899;42.662;23.316;2023-02-03T08:51:56;94973.25;;;3.48;67.39
35778;BME280;21899;42.662;23.316;2023-02-03T08:54:22;94983.00;;;3.56;67.11
35778;BME280;21899;42.662;23.316;2023-02-03T08:56:48;94986.09;;;3.58;67.65
35778;BME280;21899;42.662;23.316;2023-02-03T08:59:14;94985.69;;;3.68;67.57
35778;BME280;21899;42.662;23.316;2023-02-03T09:01:40;94975.56;;;3.70;67.31
35778;BME280;21899;42.662;23.316;2023-02-03T09:04:09;94993.34;;;3.81;67.55
35778;BME280;21899;42.662;23.316;2023-02-03T09:06:35;94989.72;;;3.86;68.13
35778;BME280;21899;42.662;23.316;2023-02-03T09:09:01;94993.69;;;3.80;68.10
35778;BME280;21899;42.662;23.316;2023-02-03T09:11:27;94993.56;;;3.88;67.88
35778;BME280;21899;42.662;23.316;2023-02-03T09:13:52;94990.09;;;3.96;67.29
35778;BME280;21899;42.662;23.316;2023-02-03T09:16:18;94977.38;;;3.90;67.63
35778;BME280;21899;42.662;23.316;2023-02-03T09:18:47;94972.19;;;3.81;67.87
35778;BME280;21899;42.662;23.316;2023-02-03T09:21:13;94977.75;;;3.68;68.84
35778;BME280;21899;42.662;23.316;2023-02-03T09:23:41;94946.88;;;3.72;69.01
35778;BME280;21899;42.662;23.316;2023-02-03T09:26:11;94953.31;;;3.83;68.60
35778;BME280;21899;42.662;23.316;2023-02-03T09:28:37;94971.44;;;4.05;68.38
35778;BME280;21899;42.662;23.316;2023-02-03T09:31:05;94978.75;;;4.08;68.32
35778;BME280;21899;42.662;23.316;2023-02-03T09:33:31;94972.63;;;3.95;67.78
35778;BME280;21899;42.662;23.316;2023-02-03T09:35:57;94972.75;;;3.99;67.92
35778;BME280;21899;42.662;23.316;2023-02-03T09:38:24;94962.03;;;3.95;68.35
35778;BME280;21899;42.662;23.316;2023-02-03T09:40:53;94966.25;;;4.09;67.93
35778;BME280;21899;42.662;23.316;2023-02-03T09:45:51;94971.50;;;4.29;67.25
35778;BME280;21899;42.662;23.316;2023-02-03T09:48:22;94961.44;;;4.35;65.35
35778;BME280;21899;42.662;23.316;2023-02-03T09:50:49;94962.97;;;4.24;64.74
35778;BME280;21899;42.662;23.316;2023-02-03T09:53:36;94949.44;;;3.80;58.98
35778;BME280;21899;42.662;23.316;2023-02-03T09:56:16;94955.06;;;3.26;61.74
35778;BME280;21899;42.662;23.316;2023-02-03T09:58:44;94957.22;;;3.12;64.84
35778;BME280;21899;42.662;23.316;2023-02-03T10:01:11;94947.34;;;3.21;65.60
35778;BME280;21899;42.662;23.316;2023-02-03T10:06:35;94934.03;;;3.50;63.40
35778;BME280;21899;42.662;23.316;2023-02-03T10:17:27;94943.47;;;3.71;62.67
35778;BME280;21899;42.662;23.316;2023-02-03T10:22:40;94942.00;;;3.62;63.64
35778;BME280;21899;42.662;23.316;2023-02-03T10:27:38;94938.72;;;3.65;63.05
35778;BME280;21899;42.662;23.316;2023-02-03T10:30:19;94922.75;;;3.85;62.63
35778;BME280;21899;42.662;23.316;2023-02-03T10:32:45;94929.09;;;4.17;61.45
35778;BME280;21899;42.662;23.316;2023-02-03T10:35:12;94931.41;;;4.55;59.89
35778;BME280;21899;42.662;23.316;2023-02-03T10:37:49;94938.09;;;4.88;56.29
35778;BME280;21899;42.662;23.316;2023-02-03T10:40:15;94943.19;;;4.93;55.97
35778;BME280;21899;42.662;23.316;2023-02-03T10:42:43;94935.13;;;4.78;57.04
35778;BME280;21899;42.662;23.316;2023-02-03T10:45:32;94946.63;;;4.82;56.89
35778;BME280;21899;42.662;23.316;2023-02-03T10:48:01;94931.50;;;4.58;56.18
35778;BME280;21899;42.662;23.316;2023-02-03T10:50:28;94934.28;;;4.62;57.26
35778;BME280;21899;42.662;23.316;2023-02-03T10:53:23;94936.84;;;4.34;56.29
35778;BME280;21899;42.662;23.316;2023-02-03T10:56:11;94946.28;;;4.23;56.01
35778;BME280;21899;42.662;23.316;2023-02-03T10:58:37;94923.34;;;4.03;56.22
35778;BME280;21899;42.662;23.316;2023-02-03T11:03:33;94941.13;;;4.51;55.63
35778;BME280;21899;42.662;23.316;2023-02-03T11:06:17;94926.00;;;4.27;50.80
35778;BME280;21899;42.662;23.316;2023-02-03T11:08:47;94940.09;;;4.07;50.81
35778;BME280;21899;42.662;23.316;2023-02-03T11:13:40;94933.72;;;4.08;52.26
35778;BME280;21899;42.662;23.316;2023-02-03T11:16:16;94924.69;;;4.21;52.44
35778;BME280;21899;42.662;23.316;2023-02-03T11:21:16;94915.72;;;4.14;51.69
35778;BME280;21899;42.662;23.316;2023-02-03T11:26:20;94915.81;;;3.93;51.53
35778;BME280;21899;42.662;23.316;2023-02-03T11:28:49;94908.09;;;3.88;52.05
35778;BME280;21899;42.662;23.316;2023-02-03T11:31:18;94911.41;;;3.97;51.70
35778;BME280;21899;42.662;23.316;2023-02-03T11:33:54;94904.13;;;4.06;50.38
35778;BME280;21899;42.662;23.316;2023-02-03T11:36:20;94907.13;;;4.29;49.56
35778;BME280;21899;42.662;23.316;2023-02-03T11:38:46;94899.81;;;4.62;49.05
35778;BME280;21899;42.662;23.316;2023-02-03T11:41:19;94882.66;;;4.83;48.92
35778;BME280;21899;42.662;23.316;2023-02-03T11:43:46;94889.97;;;5.14;47.50
35778;BME280;21899;42.662;23.316;2023-02-03T11:46:12;94891.16;;;5.16;47.89
35778;BME280;21899;42.662;23.316;2023-02-03T11:56:58;94888.09;;;5.02;46.57
35778;BME280;21899;42.662;23.316;2023-02-03T11:59:39;94892.66;;;5.02;46.01
35778;BME280;21899;42.662;23.316;2023-02-03T12:13:38;94895.66;;;5.00;43.11
35778;BME280;21899;42.662;23.316;2023-02-03T12:24:42;94907.81;;;3.57;45.37
35778;BME280;21899;42.662;23.316;2023-02-03T12:27:24;94915.16;;;3.51;45.08
35778;BME280;21899;42.662;23.316;2023-02-03T12:30:09;94894.31;;;3.50;45.62
35778;BME280;21899;42.662;23.316;2023-02-03T12:32:42;94893.78;;;3.56;45.83
35778;BME280;21899;42.662;23.316;2023-02-03T12:37:43;94880.31;;;3.49;46.54
35778;BME280;21899;42.662;23.316;2023-02-03T12:40:14;94885.47;;;3.46;46.57
35778;BME280;21899;42.662;23.316;2023-02-03T12:46:18;94889.66;;;3.35;47.77
35778;BME280;21899;42.662;23.316;2023-02-03T12:48:56;94881.00;;;3.26;48.45
35778;BME280;21899;42.662;23.316;2023-02-03T12:51:37;94879.47;;;3.25;48.54
35778;BME280;21899;42.662;23.316;2023-02-03T12:56:57;94870.19;;;3.51;49.14
35778;BME280;21899;42.662;23.316;2023-02-03T12:59:27;94859.72;;;3.67;48.14
35778;BME280;21899;42.662;23.316;2023-02-03T13:02:02;94863.59;;;3.69;48.20
35778;BME280;21899;42.662;23.316;2023-02-03T13:07:11;94847.25;;;3.55;49.33
35778;BME280;21899;42.662;23.316;2023-02-03T13:12:34;94862.59;;;3.62;50.96
35778;BME280;21899;42.662;23.316;2023-02-03T13:20:40;94846.06;;;3.65;51.95
35778;BME280;21899;42.662;23.316;2023-02-03T13:23:09;94853.22;;;3.64;51.75
35778;BME280;21899;42.662;23.316;2023-02-03T13:25:43;94853.19;;;3.52;52.43
35778;BME280;21899;42.662;23.316;2023-02-03T13:28:21;94852.31;;;3.48;52.57
35778;BME280;21899;42.662;23.316;2023-02-03T13:34:15;94840.94;;;3.48;52.99
35778;BME280;21899;42.662;23.316;2023-02-03T13:42:23;94839.47;;;3.26;53.66
35778;BME280;21899;42.662;23.316;2023-02-03T13:47:44;94833.44;;;3.05;54.50
35778;BME280;21899;42.662;23.316;2023-02-03T13:50:29;94830.88;;;2.97;54.95
35778;BME280;21899;42.662;23.316;2023-02-03T13:53:04;94840.03;;;2.99;55.35
35778;BME280;21899;42.662;23.316;2023-02-03T13:56:07;94850.72;;;3.03;56.02
35778;BME280;21899;42.662;23.316;2023-02-03T13:58:39;94857.19;;;2.93;55.89
35778;BME280;21899;42.662;23.316;2023-02-03T14:05:57;94839.34;;;2.69;58.00
35778;BME280;21899;42.662;23.316;2023-02-03T14:16:43;94841.75;;;2.62;58.88
35778;BME280;21899;42.662;23.316;2023-02-03T14:21:50;94840.44;;;2.68;58.79
35778;BME280;21899;42.662;23.316;2023-02-03T14:24:17;94842.63;;;2.66;58.68
35778;BME280;21899;42.662;23.316;2023-02-03T14:26:52;94831.00;;;2.67;58.96
35778;BME280;21899;42.662;23.316;2023-02-03T14:34:32;94839.47;;;2.73;58.18
35778;BME280;21899;42.662;23.316;2023-02-03T14:37:28;94847.34;;;2.82;58.25
35778;BME280;21899;42.662;23.316;2023-02-03T14:43:36;94840.25;;;2.94;56.65
35778;BME280;21899;42.662;23.316;2023-02-03T14:45:49;94843.91;;;3.02;55.14
35778;BME280;21899;42.662;23.316;2023-02-03T14:48:35;94831.50;;;3.14;53.57
35778;BME280;21899;42.662;23.316;2023-02-03T14:54:23;94828.63;;;3.19;53.47
35778;BME280;21899;42.662;23.316;2023-02-03T15:00:00;94821.00;;;3.06;54.26
35778;BME280;21899;42.662;23.316;2023-02-03T15:02:28;94814.38;;;3.00;54.73
35778;BME280;21899;42.662;23.316;2023-02-03T15:07:46;94799.97;;;2.77;55.91
35778;BME280;21899;42.662;23.316;2023-02-03T15:10:17;94795.34;;;2.74;55.03
35778;BME280;21899;42.662;23.316;2023-02-03T15:12:53;94793.78;;;2.73;55.98
35778;BME280;21899;42.662;23.316;2023-02-03T15:15:24;94782.56;;;2.55;56.39
35778;BME280;21899;42.662;23.316;2023-02-03T15:17:52;94774.31;;;2.56;56.23
35778;BME280;21899;42.662;23.316;2023-02-03T15:23:00;94769.09;;;2.48;55.54
35778;BME280;21899;42.662;23.316;2023-02-03T15:25:28;94770.09;;;2.43;54.00
35778;BME280;21899;42.662;23.316;2023-02-03T15:27:54;94753.34;;;2.39;53.41
35778;BME280;21899;42.662;23.316;2023-02-03T15:30:27;94758.63;;;2.39;53.16
35778;BME280;21899;42.662;23.316;2023-02-03T15:33:08;94764.31;;;2.29;52.82
35778;BME280;21899;42.662;23.316;2023-02-03T15:35:39;94775.44;;;2.35;52.74
35778;BME280;21899;42.662;23.316;2023-02-03T15:38:09;94768.03;;;2.28;53.33
35778;BME280;21899;42.662;23.316;2023-02-03T15:40:42;94755.78;;;2.24;53.52